Hlavní strana
METAR-TAF:

METAR-TAF

Letiště :

Statesville Regional Airport

Statesville, Severní Karolína, Spojené státy americké

zeměpisná šířka: 35-45-55N, zeměpisná délka: 080-57-24W, výška: 294 m

Aktuální stav počasí

Zpráva byla vytvořena před 32 minutami, v 10:40 UTC
Bezvětří
Teplota 19°C
Vlhkost vzduchu 94%
Tlak 1020 hPa
Viditelnost: 4.8 km
Jasno
kouřmo

METAR: KSVH 241040Z AUTO 00000KT 3SM BR CLR 19/18 A3012 RMK AO2 T01890184

Čas: 07:12 (11:12 UTC)


TAF: chybějící

Stav a předpovědi počasí z více než 4 000 letišť (zprávy METAR a TAF).

Červené a žluté tečky na mapě představují dostupné meteorologické stanice.

Když kurzor umístíte na tečku, zobrazí se název stanice.

Pak kliknutím zobrazíte stav a předpověď počasí.

Chcete-li změnit mapu, kliknutím na zelené tlačítko se znaménkem +mapu přiblížíte, kliknutím na zelené tlačítko se znaménkem – mapu oddálíte a kliknutím na zelené šipky přejdete na sousední mapy.


METAR-TAF: